createdAt,value
2019-01-19T00:01:41.294Z,29.93
2019-01-19T00:04:57.326Z,28.10
2019-01-19T00:07:42.740Z,30.63
2019-01-19T00:10:59.753Z,31.07
2019-01-19T00:14:00.218Z,27.40
2019-01-19T00:17:13.089Z,27.30
2019-01-19T00:20:39.634Z,31.40
2019-01-19T00:23:40.888Z,33.60
2019-01-19T00:27:04.066Z,29.83
2019-01-19T00:30:09.110Z,35.17
2019-01-19T00:32:48.446Z,36.20
2019-01-19T00:36:11.947Z,32.37
2019-01-19T00:39:09.564Z,32.13
2019-01-19T00:42:20.022Z,35.83
2019-01-19T00:45:23.337Z,39.27
2019-01-19T00:48:30.468Z,37.33
2019-01-19T00:51:46.338Z,36.53
2019-01-19T00:54:53.353Z,46.30
2019-01-19T00:58:16.823Z,47.23
2019-01-19T01:01:15.732Z,41.47
2019-01-19T01:04:27.483Z,45.23
2019-01-19T01:07:33.137Z,41.43
2019-01-19T01:10:23.558Z,34.80
2019-01-19T01:13:18.094Z,35.87
2019-01-19T01:15:59.193Z,37.33
2019-01-19T01:18:52.664Z,34.43
2019-01-19T01:22:12.331Z,36.20
2019-01-19T01:25:00.256Z,41.00
2019-01-19T01:28:06.310Z,34.67
2019-01-19T01:30:55.249Z,42.47
2019-01-19T01:34:02.179Z,46.47
2019-01-19T01:37:31.203Z,42.07
2019-01-19T01:40:38.762Z,40.83
2019-01-19T01:43:33.114Z,37.50
2019-01-19T01:46:38.837Z,43.87
2019-01-19T01:49:25.471Z,46.83
2019-01-19T01:52:44.794Z,38.20
2019-01-19T01:55:22.430Z,41.57
2019-01-19T01:58:01.617Z,43.40
2019-01-19T02:00:58.624Z,42.93
2019-01-19T02:04:03.624Z,40.07
2019-01-19T02:07:06.374Z,39.43
2019-01-19T02:10:17.610Z,41.30
2019-01-19T02:13:24.435Z,45.17
2019-01-19T02:16:31.105Z,41.83
2019-01-19T02:19:11.503Z,44.23
2019-01-19T02:22:19.605Z,47.70
2019-01-19T02:25:30.342Z,48.50
2019-01-19T02:28:42.241Z,47.20
2019-01-19T02:31:48.350Z,50.47
2019-01-19T02:35:11.620Z,44.00
2019-01-19T02:37:56.038Z,41.97
2019-01-19T02:40:57.086Z,47.20
2019-01-19T02:44:17.052Z,47.53
2019-01-19T02:47:20.686Z,49.03
2019-01-19T02:50:21.357Z,50.40
2019-01-19T02:53:32.609Z,47.90
2019-01-19T02:56:11.756Z,49.53
2019-01-19T02:59:13.474Z,45.53
2019-01-19T03:02:24.900Z,50.30
2019-01-19T03:05:19.981Z,51.50
2019-01-19T03:08:23.870Z,54.93
2019-01-19T03:11:35.092Z,47.53
2019-01-19T03:14:44.517Z,54.00
2019-01-19T03:17:59.421Z,54.47
2019-01-19T03:21:15.774Z,50.70
2019-01-19T03:24:28.684Z,49.20
2019-01-19T03:27:43.190Z,46.90
2019-01-19T03:30:56.643Z,55.97
2019-01-19T03:34:08.701Z,50.47
2019-01-19T03:37:35.343Z,52.03
2019-01-19T03:40:49.716Z,52.23
2019-01-19T03:44:02.392Z,54.70
2019-01-19T03:47:05.403Z,55.70
2019-01-19T03:50:04.688Z,54.03
2019-01-19T03:53:17.859Z,59.77
2019-01-19T03:56:26.950Z,52.93
2019-01-19T03:59:19.458Z,53.13
2019-01-19T04:02:11.158Z,52.60
2019-01-19T04:05:05.226Z,55.60
2019-01-19T04:07:46.749Z,54.97
2019-01-19T04:11:07.132Z,54.10
2019-01-19T04:14:30.779Z,66.17
2019-01-19T04:17:47.079Z,57.53
2019-01-19T04:21:10.113Z,52.93
2019-01-19T04:23:43.247Z,52.60
2019-01-19T04:26:19.250Z,58.87
2019-01-19T04:28:49.740Z,51.93
2019-01-19T04:31:19.856Z,55.17
2019-01-19T04:33:50.156Z,57.50
2019-01-19T04:36:21.759Z,60.40
2019-01-19T04:38:52.558Z,55.73
2019-01-19T04:41:22.797Z,56.50
2019-01-19T04:43:53.034Z,53.40
2019-01-19T04:46:23.100Z,54.93
2019-01-19T04:48:54.047Z,56.33
2019-01-19T04:51:24.199Z,51.53
2019-01-19T04:53:54.688Z,51.33
2019-01-19T04:56:24.759Z,50.37
2019-01-19T04:58:54.842Z,46.47
2019-01-19T05:01:24.943Z,48.63
2019-01-19T05:03:55.226Z,52.27
2019-01-19T05:06:30.238Z,55.60
2019-01-19T05:08:57.233Z,56.40
2019-01-19T05:11:27.419Z,58.27
2019-01-19T05:13:57.681Z,51.53
2019-01-19T05:16:27.897Z,52.77
2019-01-19T05:18:58.054Z,43.77
2019-01-19T05:21:28.511Z,47.63
2019-01-19T05:23:58.657Z,46.97
2019-01-19T05:26:28.878Z,42.87
2019-01-19T05:28:58.966Z,45.73
2019-01-19T05:31:29.126Z,49.23
2019-01-19T05:33:59.350Z,43.93
2019-01-19T05:36:29.643Z,43.50
2019-01-19T05:39:00.681Z,45.57
2019-01-19T05:41:47.141Z,45.27
2019-01-19T05:44:17.574Z,46.47
2019-01-19T05:46:47.689Z,40.40
2019-01-19T05:49:17.785Z,40.13
2019-01-19T05:51:48.029Z,42.43
2019-01-19T05:54:18.107Z,47.00
2019-01-19T05:56:48.343Z,41.17
2019-01-19T05:59:18.522Z,43.53
2019-01-19T06:01:48.758Z,42.33
2019-01-19T06:04:18.962Z,40.53
2019-01-19T06:06:49.138Z,41.17
2019-01-19T06:09:19.338Z,39.43
2019-01-19T06:11:49.466Z,44.63
2019-01-19T06:14:19.574Z,41.23
2019-01-19T06:16:49.725Z,39.40
2019-01-19T06:19:20.242Z,42.33
2019-01-19T06:21:59.034Z,43.77
2019-01-19T06:24:29.401Z,47.53
2019-01-19T06:26:59.637Z,42.87
2019-01-19T06:29:30.036Z,43.10
2019-01-19T06:32:00.186Z,45.70
2019-01-19T06:34:30.417Z,43.27
2019-01-19T06:37:00.822Z,45.90
2019-01-19T06:39:30.938Z,40.23
2019-01-19T06:42:01.138Z,46.23
2019-01-19T06:44:31.382Z,50.20
2019-01-19T06:47:01.666Z,35.57
2019-01-19T06:49:31.829Z,43.20
2019-01-19T06:52:02.007Z,40.10
2019-01-19T06:54:32.529Z,36.47
2019-01-19T06:57:02.898Z,40.13
2019-01-19T06:59:33.101Z,40.10
2019-01-19T07:02:03.293Z,40.83
2019-01-19T07:04:33.671Z,43.27
2019-01-19T07:07:03.835Z,37.97
2019-01-19T07:09:33.914Z,39.70
2019-01-19T07:12:04.264Z,35.97
2019-01-19T07:14:34.405Z,41.77
2019-01-19T07:17:04.525Z,34.43
2019-01-19T07:19:34.657Z,39.03
2019-01-19T07:22:04.881Z,39.87
2019-01-19T07:24:35.181Z,38.83
2019-01-19T07:27:06.319Z,38.47
2019-01-19T07:29:36.517Z,36.23
2019-01-19T07:32:06.727Z,38.27
2019-01-19T07:34:36.962Z,38.83
2019-01-19T07:37:09.920Z,37.97
2019-01-19T07:39:38.970Z,41.83
2019-01-19T07:42:09.183Z,44.60
2019-01-19T07:44:39.359Z,46.83
2019-01-19T07:47:10.082Z,47.20
2019-01-19T07:49:40.555Z,49.23
2019-01-19T07:52:10.994Z,54.70
2019-01-19T07:54:41.145Z,54.03
2019-01-19T07:57:11.421Z,49.97
2019-01-19T07:59:41.547Z,51.83
2019-01-19T08:02:11.697Z,56.03
2019-01-19T08:04:41.926Z,64.97
2019-01-19T08:07:17.267Z,64.77
2019-01-19T08:09:43.998Z,64.10
2019-01-19T08:12:14.265Z,63.33
2019-01-19T08:14:44.406Z,51.47
2019-01-19T08:17:14.578Z,51.30
2019-01-19T08:19:44.753Z,51.30
2019-01-19T08:22:14.982Z,44.20
2019-01-19T08:24:45.134Z,45.43
2019-01-19T08:27:15.290Z,49.77
2019-01-19T08:29:45.423Z,42.10
2019-01-19T08:32:15.601Z,47.90
2019-01-19T08:34:46.670Z,49.07
2019-01-19T08:37:16.870Z,44.77
2019-01-19T08:39:47.199Z,41.93
2019-01-19T08:42:17.442Z,34.83
2019-01-19T08:44:47.650Z,38.33
2019-01-19T08:47:17.823Z,37.67
2019-01-19T08:49:48.348Z,35.97
2019-01-19T08:52:18.684Z,40.83
2019-01-19T08:54:48.929Z,37.77
2019-01-19T08:57:19.075Z,43.40
2019-01-19T08:59:52.202Z,41.20
2019-01-19T09:02:22.768Z,41.53
2019-01-19T09:04:52.958Z,42.17
2019-01-19T09:07:23.244Z,46.23
2019-01-19T09:09:53.502Z,46.87
2019-01-19T09:12:23.671Z,48.00
2019-01-19T09:14:53.842Z,51.80
2019-01-19T09:17:24.122Z,51.40
2019-01-19T09:19:54.328Z,46.30
2019-01-19T09:22:24.514Z,46.10
2019-01-19T09:24:54.697Z,42.63
2019-01-19T09:27:25.798Z,42.77
2019-01-19T09:29:55.950Z,40.53
2019-01-19T09:32:26.393Z,42.33
2019-01-19T09:34:56.645Z,41.50
2019-01-19T09:37:26.776Z,48.53
2019-01-19T09:39:56.918Z,40.17
2019-01-19T09:42:27.306Z,37.57
2019-01-19T09:44:57.516Z,40.67
2019-01-19T09:47:27.671Z,48.50
2019-01-19T09:49:57.947Z,49.60
2019-01-19T09:52:28.196Z,49.43
2019-01-19T09:54:58.458Z,45.20
2019-01-19T09:57:28.577Z,45.73
2019-01-19T09:59:58.861Z,48.63
2019-01-19T10:02:29.077Z,51.60
2019-01-19T10:04:59.222Z,54.03
2019-01-19T10:07:29.449Z,57.63
2019-01-19T10:09:59.622Z,46.10
2019-01-19T10:12:29.849Z,44.60
2019-01-19T10:15:00.162Z,43.87
2019-01-19T10:17:30.336Z,41.87
2019-01-19T10:20:00.554Z,45.77
2019-01-19T10:22:30.841Z,37.43
2019-01-19T10:25:00.957Z,41.30
2019-01-19T10:27:37.289Z,36.30
2019-01-19T10:30:03.209Z,42.70
2019-01-19T10:32:33.583Z,51.53
2019-01-19T10:35:04.463Z,43.70
2019-01-19T10:37:34.553Z,38.73
2019-01-19T10:40:20.762Z,31.20
2019-01-19T10:42:43.151Z,30.60
2019-01-19T10:45:15.914Z,27.57
2019-01-19T10:47:46.234Z,32.20
2019-01-19T10:50:17.500Z,29.33
2019-01-19T10:52:50.299Z,29.20
2019-01-19T10:55:20.905Z,29.37
2019-01-19T10:57:51.277Z,35.27
2019-01-19T11:00:26.605Z,27.13
2019-01-19T11:02:57.553Z,21.87
2019-01-19T11:05:28.402Z,27.33
2019-01-19T11:08:03.595Z,23.37
2019-01-19T11:10:32.717Z,27.13
2019-01-19T11:13:03.093Z,30.57
2019-01-19T11:15:35.170Z,34.87
2019-01-19T11:18:05.357Z,35.67
2019-01-19T11:20:35.657Z,37.20
2019-01-19T11:23:08.172Z,32.33
2019-01-19T11:25:38.374Z,31.00
2019-01-19T11:28:08.665Z,38.97
2019-01-19T11:30:38.844Z,34.53
2019-01-19T11:33:09.005Z,36.43
2019-01-19T11:35:39.134Z,29.33
2019-01-19T11:38:19.917Z,36.97
2019-01-19T11:41:04.158Z,37.87
2019-01-19T11:43:34.362Z,42.23
2019-01-19T11:46:04.540Z,51.03
2019-01-19T11:48:34.786Z,42.10
2019-01-19T11:51:07.378Z,37.33
2019-01-19T11:53:40.469Z,34.63
2019-01-19T11:56:12.283Z,35.70
2019-01-19T11:58:42.582Z,35.23
2019-01-19T12:01:16.024Z,35.17
2019-01-19T12:03:46.298Z,30.30
2019-01-19T12:06:16.378Z,30.27
2019-01-19T12:08:46.558Z,27.33
2019-01-19T12:11:16.869Z,36.57
2019-01-19T12:13:47.015Z,46.57
2019-01-19T12:16:17.150Z,43.10
2019-01-19T12:18:47.302Z,37.83
2019-01-19T12:21:17.556Z,46.60
2019-01-19T12:23:47.754Z,47.17
2019-01-19T12:26:17.841Z,39.23
2019-01-19T12:28:48.062Z,40.83
2019-01-19T12:31:18.414Z,33.13
2019-01-19T12:33:48.614Z,33.80
2019-01-19T12:36:18.762Z,29.90
2019-01-19T12:38:48.920Z,31.83
2019-01-19T12:41:19.041Z,31.97
2019-01-19T12:43:49.271Z,33.00
2019-01-19T12:46:19.326Z,31.87
2019-01-19T12:48:49.488Z,29.37
2019-01-19T12:51:19.681Z,29.27
2019-01-19T12:53:49.855Z,34.73
2019-01-19T12:56:19.986Z,31.87
2019-01-19T12:58:50.201Z,39.20
2019-01-19T13:01:20.397Z,42.73
2019-01-19T13:03:50.643Z,42.57
2019-01-19T13:06:34.960Z,30.97
2019-01-19T13:09:12.567Z,32.30
2019-01-19T13:12:11.103Z,32.40
2019-01-19T13:14:47.934Z,30.53
2019-01-19T13:18:04.946Z,26.07
2019-01-19T13:21:08.417Z,29.00
2019-01-19T13:24:15.827Z,33.17
2019-01-19T13:27:13.699Z,31.00
2019-01-19T13:30:40.222Z,29.90
2019-01-19T13:33:54.156Z,29.40
2019-01-19T13:37:02.285Z,26.90
2019-01-19T13:39:47.633Z,28.43
2019-01-19T13:42:52.586Z,34.10
2019-01-19T13:45:35.978Z,35.33
2019-01-19T13:48:49.121Z,69.43
2019-01-19T13:51:47.007Z,60.90
2019-01-19T13:54:55.962Z,51.63
2019-01-19T13:58:25.422Z,41.07
2019-01-19T14:01:38.043Z,44.87
2019-01-19T14:04:43.701Z,38.90
2019-01-19T14:07:45.809Z,39.47
2019-01-19T14:10:46.994Z,34.90
2019-01-19T14:13:47.377Z,35.27
2019-01-19T14:17:06.311Z,33.17
2019-01-19T14:20:13.114Z,32.40
2019-01-19T14:23:28.522Z,30.63
2019-01-19T14:26:55.438Z,34.53
2019-01-19T14:29:56.884Z,35.57
2019-01-19T14:32:59.545Z,36.43
2019-01-19T14:35:46.627Z,43.07
2019-01-19T14:38:59.650Z,52.50
2019-01-19T14:42:04.741Z,56.27
2019-01-19T14:45:13.912Z,51.77
2019-01-19T14:48:15.974Z,56.17
2019-01-19T14:51:42.253Z,54.30
2019-01-19T14:54:45.602Z,80.70
2019-01-19T14:57:30.231Z,99.60
2019-01-19T15:00:21.395Z,101.97
2019-01-19T15:03:32.314Z,75.07
2019-01-19T15:06:47.474Z,50.93
2019-01-19T15:09:54.874Z,65.43
2019-01-19T15:12:58.699Z,68.27
2019-01-19T15:15:51.010Z,102.43
2019-01-19T15:18:58.618Z,95.47
2019-01-19T15:22:00.582Z,60.30
2019-01-19T15:25:00.255Z,54.20
2019-01-19T15:27:56.770Z,57.03
2019-01-19T15:30:45.681Z,57.87
2019-01-19T15:33:51.763Z,65.60
2019-01-19T15:37:15.418Z,61.07
2019-01-19T15:40:18.095Z,59.27
2019-01-19T15:43:14.068Z,53.93
2019-01-19T15:46:26.483Z,77.83
2019-01-19T15:49:19.512Z,84.40
2019-01-19T15:52:16.042Z,90.47
2019-01-19T15:55:31.126Z,110.73
2019-01-19T16:02:09.353Z,106.03
2019-01-19T16:05:14.915Z,94.10
2019-01-19T16:08:24.727Z,67.53
2019-01-19T16:11:08.276Z,75.57
2019-01-19T16:14:21.401Z,147.97
2019-01-19T16:17:30.346Z,134.50
2019-01-19T16:20:31.110Z,88.80
2019-01-19T16:23:32.454Z,80.60
2019-01-19T16:27:10.921Z,63.43
2019-01-19T16:29:57.146Z,63.23
2019-01-19T16:33:17.606Z,53.07
2019-01-19T16:36:14.162Z,70.27
2019-01-19T16:39:55.832Z,120.47
2019-01-19T16:43:11.979Z,102.10
2019-01-19T16:46:06.628Z,118.50
2019-01-19T16:49:13.457Z,102.00
2019-01-19T16:52:37.666Z,76.03
2019-01-19T16:55:36.246Z,70.73
2019-01-19T16:58:46.579Z,59.27
2019-01-19T17:02:01.149Z,55.60
2019-01-19T17:04:58.747Z,53.70
2019-01-19T17:07:54.815Z,50.80
2019-01-19T17:11:21.695Z,62.80
2019-01-19T17:13:55.808Z,78.53
2019-01-19T17:16:55.545Z,105.23
2019-01-19T17:19:46.403Z,67.43
2019-01-19T17:22:59.033Z,75.20
2019-01-19T17:26:05.435Z,56.57
2019-01-19T17:28:57.078Z,44.50
2019-01-19T17:31:41.693Z,49.97
2019-01-19T17:34:44.780Z,69.63
2019-01-19T17:37:55.089Z,76.17
2019-01-19T17:41:02.116Z,94.17
2019-01-19T17:43:41.586Z,85.93
2019-01-19T17:46:56.774Z,85.03
2019-01-19T17:50:15.414Z,72.23
2019-01-19T17:53:00.019Z,74.30
2019-01-19T17:56:00.095Z,80.67
2019-01-19T17:59:32.275Z,63.20
2019-01-19T18:02:44.325Z,82.50
2019-01-19T18:05:39.738Z,114.93
2019-01-19T18:09:15.305Z,126.90
2019-01-19T18:16:19.139Z,180.77
2019-01-19T18:19:37.619Z,113.33
2019-01-19T18:22:48.475Z,83.53
2019-01-19T18:25:55.784Z,76.10
2019-01-19T18:29:11.718Z,80.70
2019-01-19T18:32:13.153Z,82.37
2019-01-19T18:34:59.793Z,72.20
2019-01-19T18:37:47.001Z,78.90
2019-01-19T18:41:10.783Z,79.63
2019-01-19T18:44:18.742Z,91.70
2019-01-19T18:47:13.674Z,82.53
2019-01-19T18:50:23.777Z,90.97
2019-01-19T18:53:26.289Z,95.37
2019-01-19T18:56:29.857Z,92.47
2019-01-19T18:59:31.086Z,102.07
2019-01-19T19:02:30.475Z,99.87
2019-01-19T19:05:31.077Z,110.63
2019-01-19T19:08:39.370Z,117.70
2019-01-19T19:11:58.014Z,124.37
2019-01-19T19:15:07.516Z,135.83
2019-01-19T19:18:18.469Z,154.73
2019-01-19T19:21:19.436Z,177.77
2019-01-19T19:24:40.135Z,160.80
2019-01-19T19:28:03.229Z,162.37
2019-01-19T19:31:22.248Z,157.23
2019-01-19T19:34:51.487Z,172.37
2019-01-19T19:37:38.172Z,177.37
2019-01-19T19:40:51.302Z,175.83
2019-01-19T19:43:46.959Z,173.37
2019-01-19T19:46:54.001Z,178.53
2019-01-19T19:49:55.400Z,166.70
2019-01-19T19:52:28.000Z,164.57
2019-01-19T19:54:57.505Z,173.50
2019-01-19T19:57:27.771Z,165.73
2019-01-19T19:59:57.981Z,165.77
2019-01-19T20:02:28.640Z,161.43
2019-01-19T20:04:58.911Z,162.23
2019-01-19T20:07:29.514Z,171.60
2019-01-19T20:09:59.633Z,151.73
2019-01-19T20:12:29.991Z,173.97
2019-01-19T20:15:00.244Z,201.33
2019-01-19T20:17:30.576Z,215.20
2019-01-19T20:20:00.859Z,227.57
2019-01-19T20:22:31.206Z,223.60
2019-01-19T20:25:01.399Z,205.60
2019-01-19T20:27:31.931Z,187.27
2019-01-19T20:30:02.236Z,193.80
2019-01-19T20:32:33.983Z,171.90
2019-01-19T20:35:04.738Z,155.67
2019-01-19T20:37:34.938Z,146.67
2019-01-19T20:40:06.086Z,143.77
2019-01-19T20:42:36.585Z,141.83
2019-01-19T20:45:08.440Z,136.93
2019-01-19T20:47:38.821Z,143.13
2019-01-19T20:50:09.618Z,143.40
2019-01-19T20:52:39.870Z,145.27
2019-01-19T20:55:10.242Z,154.97
2019-01-19T20:57:40.314Z,153.37
2019-01-19T21:00:15.217Z,155.37
2019-01-19T21:02:45.539Z,154.37
2019-01-19T21:05:15.884Z,161.03
2019-01-19T21:07:46.234Z,164.97
2019-01-19T21:10:16.454Z,145.70
2019-01-19T21:12:46.890Z,147.10
2019-01-19T21:15:17.214Z,153.23
2019-01-19T21:17:55.602Z,153.50
2019-01-19T21:20:20.858Z,168.83
2019-01-19T21:22:51.057Z,220.03
2019-01-19T21:25:21.225Z,245.33
2019-01-19T21:27:51.286Z,226.37
2019-01-19T21:30:24.867Z,170.23
2019-01-19T21:32:56.713Z,187.90
2019-01-19T21:35:27.927Z,185.00
2019-01-19T21:38:01.107Z,189.10
2019-01-19T21:40:39.196Z,186.33
2019-01-19T21:43:14.930Z,176.57
2019-01-19T21:45:45.427Z,189.33
2019-01-19T21:48:20.436Z,200.03
2019-01-19T21:50:52.875Z,237.47
2019-01-19T21:53:29.987Z,221.53
2019-01-19T21:56:02.989Z,225.47
2019-01-19T21:58:37.934Z,191.57
2019-01-19T22:01:08.141Z,201.43
2019-01-19T22:03:39.422Z,203.70
2019-01-19T22:06:13.147Z,179.00
2019-01-19T22:08:47.894Z,188.27
2019-01-19T22:11:18.154Z,221.50
2019-01-19T22:13:48.313Z,238.80
2019-01-19T22:16:23.906Z,230.23
2019-01-19T22:18:57.642Z,240.00
2019-01-19T22:21:27.742Z,230.67
2019-01-19T22:23:57.904Z,234.40
2019-01-19T22:26:28.489Z,220.03
2019-01-19T22:29:04.040Z,245.60
2019-01-19T22:31:34.355Z,292.43
2019-01-19T22:34:08.298Z,299.13
2019-01-19T22:36:40.213Z,343.73
2019-01-19T22:39:11.832Z,322.97
2019-01-19T22:41:42.102Z,334.70
2019-01-19T22:44:13.217Z,359.53
2019-01-19T22:46:43.517Z,347.80
2019-01-19T22:49:14.518Z,323.70
2019-01-19T22:51:50.531Z,328.20
2019-01-19T22:54:23.675Z,352.90
2019-01-19T22:56:53.988Z,377.07
2019-01-19T22:59:24.225Z,357.60
2019-01-19T23:02:12.876Z,373.27
2019-01-19T23:04:48.320Z,344.43
2019-01-19T23:07:22.454Z,346.43
2019-01-19T23:09:54.536Z,324.13
2019-01-19T23:12:25.162Z,311.43
2019-01-19T23:14:55.354Z,308.20
2019-01-19T23:17:27.063Z,296.20
2019-01-19T23:19:59.086Z,271.53
2019-01-19T23:22:29.537Z,271.27
2019-01-19T23:25:00.190Z,271.47
2019-01-19T23:27:32.002Z,277.23
2019-01-19T23:30:02.475Z,290.50
2019-01-19T23:32:32.678Z,273.20
2019-01-19T23:35:02.854Z,273.83
2019-01-19T23:37:34.298Z,256.67
2019-01-19T23:40:05.399Z,252.87
2019-01-19T23:42:35.707Z,275.10
2019-01-19T23:45:06.301Z,283.50
2019-01-19T23:47:36.488Z,289.17
2019-01-19T23:50:07.182Z,289.60
2019-01-19T23:52:37.553Z,303.83
2019-01-19T23:55:07.977Z,310.37
2019-01-19T23:57:38.146Z,285.57
